Texas Enterprise — KSDF — position and weather

sailwx.info

Track history (hours):
 
Tides and Currents Weather Stations Pressure Air Temp Water Temp Dewpoint Dewpoint Depression Visibility Wind Speed Wind Dir Waves Ship Positions

Texas Enterprise

Owner: U.S. United Ocean Services, LLC, Tampa, FL. More information available from US FCC via Universal Licensing System and Coast Guard Vessel Documentation Center.

Last reported at 2016-Aug-25 15:31 UTC. Time now 2016-Aug-25 16:44 UTC.
Position N 27°48' W 082°25'.

Type: Cargo ship. MMSI: 366163000.

Date/timePositionNaut miles runAvg speedWind from/ knotsBaromVisibWave heightAir tempDewpointWater temp
2016-Aug-25 15:31N 27°48' W 082°25'0 0.0
2016-Aug-25 14:31N 27°48' W 082°25'0 0.0
2016-Aug-25 13:31N 27°48' W 082°25'0 0.0
2016-Aug-25 12:31N 27°48' W 082°25'0 0.0
2016-Aug-25 11:31N 27°48' W 082°25'0 0.0
2016-Aug-25 10:31N 27°48' W 082°25'0 0.0
2016-Aug-25 09:34N 27°48' W 082°25'0 0.0
2016-Aug-25 08:31N 27°48' W 082°25'0 0.0
2016-Aug-25 07:31N 27°48' W 082°25'0 0.0
2016-Aug-25 06:31N 27°48' W 082°25'0 0.0
2016-Aug-25 04:31N 27°48' W 082°25'0 0.0
2016-Aug-25 03:31N 27°48' W 082°25'0 0.0
2016-Aug-25 02:31N 27°48' W 082°25'0 0.0
2016-Aug-25 01:31N 27°48' W 082°25'0 0.0
2016-Aug-25 00:34N 27°48' W 082°25'0 0.0
2016-Aug-24 23:34N 27°48' W 082°25'0 0.0
2016-Aug-24 22:28N 27°48' W 082°25'0 0.0
2016-Aug-24 21:34N 27°48' W 082°25'0 0.0
2016-Aug-24 20:30N 27°48' W 082°25'0 0.0
2016-Aug-24 19:31N 27°48' W 082°25'0 0.0
2016-Aug-24 18:30N 27°48' W 082°25'0 0.0
2016-Aug-24 17:34N 27°48' W 082°25'0 0.0
2016-Aug-24 16:33N 27°48' W 082°25'0 0.0
2016-Aug-24 15:33N 27°48' W 082°25'0 0.0
2016-Aug-24 14:34N 27°48' W 082°25'0 0.0
2016-Aug-24 13:27N 27°48' W 082°25'0 0.0
2016-Aug-24 12:34N 27°48' W 082°25'0 0.0
2016-Aug-24 11:33N 27°48' W 082°25'0 0.0
2016-Aug-24 10:30N 27°48' W 082°25'0 0.0
2016-Aug-24 09:33N 27°48' W 082°25'0 0.0
2016-Aug-24 08:34N 27°48' W 082°25'0 0.0
2016-Aug-24 07:33N 27°48' W 082°25'0 0.0
2016-Aug-24 06:33N 27°48' W 082°25'0 0.0
2016-Aug-24 04:33N 27°48' W 082°25'0 0.0
2016-Aug-24 03:33N 27°48' W 082°25'0 0.0
2016-Aug-24 02:33N 27°48' W 082°25'0 0.0
2016-Aug-24 01:33N 27°48' W 082°25'0 0.0
2016-Aug-24 00:33N 27°48' W 082°25'0 0.0
2016-Aug-23 23:33N 27°48' W 082°25'0 0.0
2016-Aug-23 22:33N 27°48' W 082°25'2 2.1
2016-Aug-23 21:34N 27°49' W 082°27'9 9.5
2016-Aug-23 20:33N 27°41' W 082°34'201 4.4
2016-Aug-21 22:33N 25°09' W 080°08'1110.8
2016-Aug-21 21:33N 25°19' W 080°03'1010.3
2016-Aug-21 20:33N 25°29' W 080°01'1110.7
2016-Aug-21 19:34N 25°40' W 080°02'1110.8
2016-Aug-21 18:34N 25°51' W 080°00'1110.8
2016-Aug-21 17:33N 26°01' W 079°59'1111.2
2016-Aug-21 16:34N 26°13' W 079°58'1110.8
2016-Aug-21 15:34N 26°23' W 079°57'1110.5
2016-Aug-21 14:33N 26°34' W 079°56'1010.2
2016-Aug-21 13:33N 26°44' W 079°56'10 9.8
2016-Aug-21 12:34N 26°54' W 079°55'9 9.5
2016-Aug-21 11:34N 27°03' W 079°53'13111.7
2016-Aug-21 00:18N 28°59' W 078°42'1114.3
2016-Aug-20 23:33N 29°08' W 078°36'48412.1
2016-Aug-19 07:23N 36°52' W 075°53'1011.9
2016-Aug-19 06:33N 36°60' W 076°01'6211.4
2016-Aug-19 01:07N 38°01' W 076°12'813.9
2016-Aug-19 00:32N 38°09' W 076°14'4213.1
2016-Aug-18 21:22N 38°49' W 076°25'1312.6
2016-Aug-18 20:22N 39°02' W 076°23'1011.4
2016-Aug-18 19:32N 39°11' W 076°27'7 7.4
2016-Aug-18 18:33N 39°15' W 076°34'0 0.1
2016-Aug-18 17:33N 39°15' W 076°34'0 0.0
2016-Aug-18 16:30N 39°15' W 076°34'0 0.0
2016-Aug-18 15:30N 39°15' W 076°34'0 0.0
2016-Aug-18 14:33N 39°15' W 076°34'0 0.0
2016-Aug-18 13:32N 39°15' W 076°34'0 0.0
2016-Aug-18 12:30N 39°15' W 076°34'0 0.0
2016-Aug-18 11:30N 39°15' W 076°34'0 0.0
2016-Aug-18 10:30N 39°15' W 076°34'0 0.0
2016-Aug-18 09:30N 39°15' W 076°34'0 0.0
2016-Aug-18 08:30N 39°15' W 076°34'0 0.0
2016-Aug-18 07:30N 39°15' W 076°34'0 0.0
2016-Aug-18 06:30N 39°15' W 076°34'0 0.0
2016-Aug-18 05:33N 39°15' W 076°34'0 0.0
2016-Aug-18 04:30N 39°15' W 076°34'0 0.0
2016-Aug-18 03:33N 39°15' W 076°34'0 0.0
2016-Aug-18 02:33N 39°15' W 076°34'0 0.0
2016-Aug-18 01:20N 39°15' W 076°34'0 0.0
2016-Aug-18 00:32N 39°15' W 076°34'0 0.0
2016-Aug-17 23:30N 39°15' W 076°34'0 0.0
2016-Aug-17 22:32N 39°15' W 076°34'0 0.0
2016-Aug-17 21:30N 39°15' W 076°34'0 0.0
2016-Aug-17 20:30N 39°15' W 076°34'0 0.0
2016-Aug-17 19:30N 39°15' W 076°34'0 0.0
2016-Aug-17 18:30N 39°15' W 076°34'0 0.0
2016-Aug-17 17:30N 39°15' W 076°34'0 0.0
2016-Aug-17 16:30N 39°15' W 076°34'0 0.0
2016-Aug-17 15:30N 39°15' W 076°34'0 0.0
2016-Aug-17 14:30N 39°15' W 076°34'1 1.1
2016-Aug-17 13:33N 39°15' W 076°33'8 7.7
2016-Aug-17 12:33N 39°10' W 076°25'1414.2
2016-Aug-17 11:33N 38°56' W 076°23'1413.9
2016-Aug-17 10:33N 38°42' W 076°26'1413.3
2016-Aug-17 09:30N 38°28' W 076°23'1414.0
2016-Aug-17 08:29N 38°15' W 076°16'1314.1
2016-Aug-17 07:33N 38°02' W 076°13'5914.8
2016-Aug-17 03:32N 37°03' W 076°05'1313.0
2016-Aug-17 02:33N 36°54' W 075°53'  
Track history (hours):
 
Tides and Currents Weather Stations Pressure Air Temp Water Temp Dewpoint Dewpoint Depression Visibility Wind Speed Wind Dir Waves Ship Positions

Texas Enterprise

Owner: U.S. United Ocean Services, LLC, Tampa, FL. More information available from US FCC via Universal Licensing System and Coast Guard Vessel Documentation Center.

Last reported at 2016-Aug-25 15:31 UTC. Time now 2016-Aug-25 16:44 UTC.
Position N 27°48' W 082°25'.

Type: Cargo ship. MMSI: 366163000.

Date/timePositionNaut miles runAvg speedWind from/ knotsBaromVisibWave heightAir tempDewpointWater temp
2016-Aug-25 15:31N 27°48' W 082°25'0 0.0
2016-Aug-25 14:31N 27°48' W 082°25'0 0.0
2016-Aug-25 13:31N 27°48' W 082°25'0 0.0
2016-Aug-25 12:31N 27°48' W 082°25'0 0.0
2016-Aug-25 11:31N 27°48' W 082°25'0 0.0
2016-Aug-25 10:31N 27°48' W 082°25'0 0.0
2016-Aug-25 09:34N 27°48' W 082°25'0 0.0
2016-Aug-25 08:31N 27°48' W 082°25'0 0.0
2016-Aug-25 07:31N 27°48' W 082°25'0 0.0
2016-Aug-25 06:31N 27°48' W 082°25'0 0.0
2016-Aug-25 04:31N 27°48' W 082°25'0 0.0
2016-Aug-25 03:31N 27°48' W 082°25'0 0.0
2016-Aug-25 02:31N 27°48' W 082°25'0 0.0
2016-Aug-25 01:31N 27°48' W 082°25'0 0.0
2016-Aug-25 00:34N 27°48' W 082°25'0 0.0
2016-Aug-24 23:34N 27°48' W 082°25'0 0.0
2016-Aug-24 22:28N 27°48' W 082°25'0 0.0
2016-Aug-24 21:34N 27°48' W 082°25'0 0.0
2016-Aug-24 20:30N 27°48' W 082°25'0 0.0
2016-Aug-24 19:31N 27°48' W 082°25'0 0.0
2016-Aug-24 18:30N 27°48' W 082°25'0 0.0
2016-Aug-24 17:34N 27°48' W 082°25'0 0.0
2016-Aug-24 16:33N 27°48' W 082°25'0 0.0
2016-Aug-24 15:33N 27°48' W 082°25'0 0.0
2016-Aug-24 14:34N 27°48' W 082°25'0 0.0
2016-Aug-24 13:27N 27°48' W 082°25'0 0.0
2016-Aug-24 12:34N 27°48' W 082°25'0 0.0
2016-Aug-24 11:33N 27°48' W 082°25'0 0.0
2016-Aug-24 10:30N 27°48' W 082°25'0 0.0
2016-Aug-24 09:33N 27°48' W 082°25'0 0.0
2016-Aug-24 08:34N 27°48' W 082°25'0 0.0
2016-Aug-24 07:33N 27°48' W 082°25'0 0.0
2016-Aug-24 06:33N 27°48' W 082°25'0 0.0
2016-Aug-24 04:33N 27°48' W 082°25'0 0.0
2016-Aug-24 03:33N 27°48' W 082°25'0 0.0
2016-Aug-24 02:33N 27°48' W 082°25'0 0.0
2016-Aug-24 01:33N 27°48' W 082°25'0 0.0
2016-Aug-24 00:33N 27°48' W 082°25'0 0.0
2016-Aug-23 23:33N 27°48' W 082°25'0 0.0
2016-Aug-23 22:33N 27°48' W 082°25'2 2.1
2016-Aug-23 21:34N 27°49' W 082°27'9 9.5
2016-Aug-23 20:33N 27°41' W 082°34'201 4.4
2016-Aug-21 22:33N 25°09' W 080°08'1110.8
2016-Aug-21 21:33N 25°19' W 080°03'1010.3
2016-Aug-21 20:33N 25°29' W 080°01'1110.7
2016-Aug-21 19:34N 25°40' W 080°02'1110.8
2016-Aug-21 18:34N 25°51' W 080°00'1110.8
2016-Aug-21 17:33N 26°01' W 079°59'1111.2
2016-Aug-21 16:34N 26°13' W 079°58'1110.8
2016-Aug-21 15:34N 26°23' W 079°57'1110.5
2016-Aug-21 14:33N 26°34' W 079°56'1010.2
2016-Aug-21 13:33N 26°44' W 079°56'10 9.8
2016-Aug-21 12:34N 26°54' W 079°55'9 9.5
2016-Aug-21 11:34N 27°03' W 079°53'13111.7
2016-Aug-21 00:18N 28°59' W 078°42'1114.3
2016-Aug-20 23:33N 29°08' W 078°36'48412.1
2016-Aug-19 07:23N 36°52' W 075°53'1011.9
2016-Aug-19 06:33N 36°60' W 076°01'6211.4
2016-Aug-19 01:07N 38°01' W 076°12'813.9
2016-Aug-19 00:32N 38°09' W 076°14'4213.1
2016-Aug-18 21:22N 38°49' W 076°25'1312.6
2016-Aug-18 20:22N 39°02' W 076°23'1011.4
2016-Aug-18 19:32N 39°11' W 076°27'7 7.4
2016-Aug-18 18:33N 39°15' W 076°34'0 0.1
2016-Aug-18 17:33N 39°15' W 076°34'0 0.0
2016-Aug-18 16:30N 39°15' W 076°34'0 0.0
2016-Aug-18 15:30N 39°15' W 076°34'0 0.0
2016-Aug-18 14:33N 39°15' W 076°34'0 0.0
2016-Aug-18 13:32N 39°15' W 076°34'0 0.0
2016-Aug-18 12:30N 39°15' W 076°34'0 0.0
2016-Aug-18 11:30N 39°15' W 076°34'0 0.0
2016-Aug-18 10:30N 39°15' W 076°34'0 0.0
2016-Aug-18 09:30N 39°15' W 076°34'0 0.0
2016-Aug-18 08:30N 39°15' W 076°34'0 0.0
2016-Aug-18 07:30N 39°15' W 076°34'0 0.0
2016-Aug-18 06:30N 39°15' W 076°34'0 0.0
2016-Aug-18 05:33N 39°15' W 076°34'0 0.0
2016-Aug-18 04:30N 39°15' W 076°34'0 0.0
2016-Aug-18 03:33N 39°15' W 076°34'0 0.0
2016-Aug-18 02:33N 39°15' W 076°34'0 0.0
2016-Aug-18 01:20N 39°15' W 076°34'0 0.0
2016-Aug-18 00:32N 39°15' W 076°34'0 0.0
2016-Aug-17 23:30N 39°15' W 076°34'0 0.0
2016-Aug-17 22:32N 39°15' W 076°34'0 0.0
2016-Aug-17 21:30N 39°15' W 076°34'0 0.0
2016-Aug-17 20:30N 39°15' W 076°34'0 0.0
2016-Aug-17 19:30N 39°15' W 076°34'0 0.0
2016-Aug-17 18:30N 39°15' W 076°34'0 0.0
2016-Aug-17 17:30N 39°15' W 076°34'0 0.0
2016-Aug-17 16:30N 39°15' W 076°34'0 0.0
2016-Aug-17 15:30N 39°15' W 076°34'0 0.0
2016-Aug-17 14:30N 39°15' W 076°34'1 1.1
2016-Aug-17 13:33N 39°15' W 076°33'8 7.7
2016-Aug-17 12:33N 39°10' W 076°25'1414.2
2016-Aug-17 11:33N 38°56' W 076°23'1413.9
2016-Aug-17 10:33N 38°42' W 076°26'1413.3
2016-Aug-17 09:30N 38°28' W 076°23'1414.0
2016-Aug-17 08:29N 38°15' W 076°16'1314.1
2016-Aug-17 07:33N 38°02' W 076°13'5914.8
2016-Aug-17 03:32N 37°03' W 076°05'1313.0
2016-Aug-17 02:33N 36°54' W 075°53'  

Dump ship's entire track history